Time;durP1;ratioP1;P1;durP2;ratioP2;P2;SDS_P1;SDS_P2;PMS_P1;PMS_P2;Temp;Humidity;BMP_temperature;BMP_pressure;BME280_temperature;BME280_humidity;BME280_pressure;Samples;Min_cycle;Max_cycle;Signal;HPM_P1;HPM_P2
2022/09/17 00:00:10;;;;;;;;;;;6.00;99.90;;;;;;5122911;27;19916;-65
2022/09/17 00:02:35;;;;;;;;;;;6.10;99.90;;;;;;5121013;27;19931;-66
2022/09/17 00:05:00;;;;;;;;;;;6.00;99.90;;;;;;5119491;27;20354;-66
2022/09/17 00:07:27;;;;;;;;;;;6.10;99.90;;;;;;5126285;27;19926;-66
2022/09/17 00:09:52;;;;;;;;;;;6.10;99.90;;;;;;5123483;27;19923;-66
2022/09/17 00:12:18;;;;;;;;;;;6.10;99.90;;;;;;5126101;27;20256;-65
2022/09/17 00:14:43;;;;;;;;;;;6.10;99.90;;;;;;5121421;27;20026;-66
2022/09/17 00:17:09;;;;;;;;;;;6.20;99.90;;;;;;5115570;27;19939;-65
2022/09/17 00:19:34;;;;;;;;;;;6.20;99.90;;;;;;5128806;27;19915;-65
2022/09/17 00:22:00;;;;;;;;;;;6.20;99.90;;;;;;5123845;27;19983;-66
2022/09/17 00:24:25;;;;;;;;;;;6.30;99.90;;;;;;5121946;27;20328;-66
2022/09/17 00:26:52;;;;;;;;;;;6.30;99.90;;;;;;5122104;27;19922;-66
2022/09/17 00:29:18;;;;;;;;;;;6.30;99.90;;;;;;5110716;27;19975;-66
2022/09/17 00:31:43;;;;;;;;;;;6.30;99.90;;;;;;5123578;27;19915;-66
2022/09/17 00:34:09;;;;;;;;;;;6.30;99.90;;;;;;5123517;27;20302;-65
2022/09/17 00:36:35;;;;;;;;;;;6.30;99.90;;;;;;5126167;27;19911;-65
2022/09/17 00:39:00;;;;;;;;;;;6.30;99.90;;;;;;5119154;27;19927;-66
2022/09/17 00:41:31;;;;;;;;;;;6.30;99.90;;;;;;5120366;27;19915;-66
2022/09/17 00:43:58;;;;;;;;;;;6.30;99.90;;;;;;5124449;27;19986;-66
2022/09/17 00:46:37;;;;;;;;;;;6.30;99.90;;;;;;5125898;27;19915;-66
2022/09/17 00:49:38;;;;;;;;;;;6.30;99.90;;;;;;5122160;27;20298;-66
2022/09/17 00:52:05;;;;;;;;;;;6.30;99.90;;;;;;5063733;28;20375;-65
2022/09/17 00:54:32;;;;;;;;;;;6.30;99.90;;;;;;5104431;27;19919;-66
2022/09/17 00:56:57;;;;;;;;;;;6.40;99.90;;;;;;5123279;27;19915;-66
2022/09/17 00:59:23;;;;;;;;;;;6.40;99.90;;;;;;5123205;27;20399;-66
2022/09/17 01:01:49;;;;;;;;;;;6.30;99.90;;;;;;5121228;27;19960;-66
2022/09/17 01:04:15;;;;;;;;;;;6.40;99.90;;;;;;5114030;27;20412;-65
2022/09/17 01:07:01;;;;;;;;;;;6.40;99.90;;;;;;5121737;27;19915;-66
2022/09/17 01:09:51;;;;;;;;;;;6.40;99.90;;;;;;5074419;27;20639;-65
2022/09/17 01:12:32;;;;;;;;;;;6.40;99.90;;;;;;5121106;27;20019;-66
2022/09/17 01:14:57;;;;;;;;;;;6.40;99.90;;;;;;5122586;27;19923;-65
2022/09/17 01:17:26;;;;;;;;;;;6.30;99.90;;;;;;5119947;27;19916;-66
2022/09/17 01:19:54;;;;;;;;;;;6.30;99.90;;;;;;5112668;27;20409;-66
2022/09/17 01:22:23;;;;;;;;;;;6.30;99.90;;;;;;5119544;27;19924;-66
2022/09/17 01:24:57;;;;;;;;;;;6.30;99.90;;;;;;5124798;27;19992;-66
2022/09/17 01:27:32;;;;;;;;;;;6.30;99.90;;;;;;5138680;27;19923;-66
2022/09/17 01:30:11;;;;;;;;;;;6.30;99.90;;;;;;5112553;27;19991;-66
2022/09/17 01:32:56;;;;;;;;;;;6.30;99.90;;;;;;5122357;27;20331;-66
2022/09/17 01:35:40;;;;;;;;;;;6.20;99.90;;;;;;5106260;27;19917;-65
2022/09/17 01:38:05;;;;;;;;;;;6.20;99.90;;;;;;5111230;27;20420;-65
2022/09/17 01:40:39;;;;;;;;;;;6.20;99.90;;;;;;5104596;27;19920;-65
2022/09/17 01:43:08;;;;;;;;;;;6.20;99.90;;;;;;5121566;27;20366;-65
2022/09/17 01:45:43;;;;;;;;;;;6.20;99.90;;;;;;5125586;27;20332;-66
2022/09/17 01:48:11;;;;;;;;;;;6.20;99.90;;;;;;5116780;27;19922;-65
2022/09/17 01:50:39;;;;;;;;;;;6.20;99.90;;;;;;5109598;27;20440;-66
2022/09/17 01:53:05;;;;;;;;;;;6.10;99.90;;;;;;5110870;27;19967;-65
2022/09/17 01:55:34;;;;;;;;;;;6.20;99.90;;;;;;5118201;27;20442;-66
2022/09/17 01:58:22;;;;;;;;;;;6.20;99.90;;;;;;5115461;27;20246;-65
2022/09/17 02:00:51;;;;;;;;;;;6.30;99.90;;;;;;5110924;27;20042;-66
2022/09/17 02:03:19;;;;;;;;;;;6.30;99.90;;;;;;5116958;27;19919;-65
2022/09/17 02:05:45;;;;;;;;;;;6.30;99.90;;;;;;5099903;27;20014;-65
2022/09/17 02:08:13;;;;;;;;;;;6.30;99.90;;;;;;5114447;27;20011;-65
2022/09/17 02:10:42;;;;;;;;;;;6.20;99.90;;;;;;5116192;27;19923;-65
2022/09/17 02:13:12;;;;;;;;;;;6.20;99.90;;;;;;5114971;27;20494;-65
2022/09/17 02:15:45;;;;;;;;;;;6.20;99.90;;;;;;5115246;27;20157;-66
2022/09/17 02:18:18;;;;;;;;;;;6.20;99.90;;;;;;5119613;27;19977;-65
2022/09/17 02:20:53;;;;;;;;;;;6.20;99.90;;;;;;5117186;27;20388;-65
2022/09/17 02:23:22;;;;;;;;;;;6.20;99.90;;;;;;5112747;27;19995;-65
2022/09/17 02:25:58;;;;;;;;;;;6.20;99.90;;;;;;5102409;27;19955;-65
2022/09/17 02:28:33;;;;;;;;;;;6.20;99.90;;;;;;5113992;27;20392;-65
2022/09/17 02:30:59;;;;;;;;;;;6.10;99.90;;;;;;5114973;27;20405;-65
2022/09/17 02:33:25;;;;;;;;;;;6.10;99.90;;;;;;5118315;27;19915;-65
2022/09/17 02:35:51;;;;;;;;;;;6.10;99.90;;;;;;5117806;27;19923;-65
2022/09/17 02:38:27;;;;;;;;;;;6.10;99.90;;;;;;5114535;27;19919;-66
2022/09/17 02:41:05;;;;;;;;;;;6.00;99.90;;;;;;5109739;27;20014;-65
2022/09/17 02:43:42;;;;;;;;;;;6.00;99.90;;;;;;5115041;27;19978;-65
2022/09/17 02:46:27;;;;;;;;;;;6.00;99.90;;;;;;5120507;27;19962;-65
2022/09/17 02:49:04;;;;;;;;;;;5.90;99.90;;;;;;5113072;27;19919;-65
2022/09/17 02:51:38;;;;;;;;;;;5.90;99.90;;;;;;5090458;27;19912;-65
2022/09/17 02:54:26;;;;;;;;;;;5.80;99.90;;;;;;5117123;27;19916;-66
2022/09/17 02:56:55;;;;;;;;;;;5.80;99.90;;;;;;5066478;28;19951;-65
2022/09/17 02:59:28;;;;;;;;;;;5.80;99.90;;;;;;5115304;27;20382;-65
2022/09/17 03:01:54;;;;;;;;;;;5.70;99.90;;;;;;5115791;27;19936;-65
2022/09/17 03:04:21;;;;;;;;;;;5.70;99.90;;;;;;5118343;28;19989;-65
2022/09/17 03:06:47;;;;;;;;;;;5.70;99.90;;;;;;5107838;28;19930;-66
2022/09/17 03:09:15;;;;;;;;;;;5.70;99.90;;;;;;5128036;27;19919;-65
2022/09/17 03:11:41;;;;;;;;;;;5.70;99.90;;;;;;5116765;28;19951;-65
2022/09/17 03:14:06;;;;;;;;;;;5.70;99.90;;;;;;5117239;28;20010;-65
2022/09/17 03:16:32;;;;;;;;;;;5.60;99.90;;;;;;5118388;28;20010;-65
2022/09/17 03:18:57;;;;;;;;;;;5.60;99.90;;;;;;5110024;27;20283;-65
2022/09/17 03:21:23;;;;;;;;;;;5.60;99.90;;;;;;5113839;28;20002;-65
2022/09/17 03:23:48;;;;;;;;;;;5.60;99.90;;;;;;5097949;28;19938;-65
2022/09/17 03:26:14;;;;;;;;;;;5.60;99.90;;;;;;5101243;27;19918;-65
2022/09/17 03:28:39;;;;;;;;;;;5.60;99.90;;;;;;5105814;27;20378;-65
2022/09/17 03:31:05;;;;;;;;;;;5.70;99.90;;;;;;5118878;27;20447;-65
2022/09/17 03:33:31;;;;;;;;;;;5.70;99.90;;;;;;5117714;28;20390;-65
2022/09/17 03:35:56;;;;;;;;;;;5.70;99.90;;;;;;5115286;27;20286;-66
2022/09/17 03:38:22;;;;;;;;;;;5.60;99.90;;;;;;5111092;27;20664;-65
2022/09/17 03:40:58;;;;;;;;;;;5.60;99.90;;;;;;5108528;28;19916;-65
2022/09/17 03:43:23;;;;;;;;;;;5.60;99.90;;;;;;5102045;28;20214;-66
2022/09/17 03:45:49;;;;;;;;;;;5.50;99.90;;;;;;5107028;27;19934;-65
2022/09/17 03:48:14;;;;;;;;;;;5.50;99.90;;;;;;5118052;28;20591;-65
2022/09/17 03:50:39;;;;;;;;;;;5.50;99.90;;;;;;5099652;28;19946;-65
2022/09/17 03:53:05;;;;;;;;;;;5.40;99.90;;;;;;5110586;28;19926;-65
2022/09/17 03:55:30;;;;;;;;;;;5.30;99.90;;;;;;5105544;27;19994;-65
2022/09/17 03:57:56;;;;;;;;;;;5.40;99.90;;;;;;5121534;27;19919;-66
2022/09/17 04:00:21;;;;;;;;;;;5.30;99.90;;;;;;5101462;27;20010;-65
2022/09/17 04:02:47;;;;;;;;;;;5.30;99.90;;;;;;5119564;27;21549;-66
2022/09/17 04:05:13;;;;;;;;;;;5.30;99.90;;;;;;5110870;27;20015;-66
2022/09/17 04:07:39;;;;;;;;;;;5.20;99.90;;;;;;5120419;27;20327;-65
2022/09/17 04:10:05;;;;;;;;;;;5.20;99.90;;;;;;5117339;27;19923;-65
2022/09/17 04:12:30;;;;;;;;;;;5.20;99.90;;;;;;5109827;27;20302;-65
2022/09/17 04:14:56;;;;;;;;;;;5.10;99.90;;;;;;5111512;27;20302;-66
2022/09/17 04:17:21;;;;;;;;;;;5.10;99.90;;;;;;5106007;27;19915;-65
2022/09/17 04:19:47;;;;;;;;;;;5.10;99.90;;;;;;5095013;27;19915;-65
2022/09/17 04:22:13;;;;;;;;;;;5.00;99.90;;;;;;5118703;27;19911;-66
2022/09/17 04:24:38;;;;;;;;;;;5.00;99.90;;;;;;5121330;27;20313;-65
2022/09/17 04:27:04;;;;;;;;;;;5.00;99.90;;;;;;5106879;27;20375;-66
2022/09/17 04:29:29;;;;;;;;;;;4.90;99.90;;;;;;5123528;27;19930;-65
2022/09/17 04:31:55;;;;;;;;;;;4.90;99.90;;;;;;5117833;27;19922;-65
2022/09/17 04:34:20;;;;;;;;;;;4.90;99.90;;;;;;5116354;27;19932;-65
2022/09/17 04:36:46;;;;;;;;;;;4.90;99.90;;;;;;5107783;27;20467;-66
2022/09/17 04:39:11;;;;;;;;;;;4.90;99.90;;;;;;5115811;27;19915;-65
2022/09/17 04:41:37;;;;;;;;;;;4.90;99.90;;;;;;5129788;27;20425;-65
2022/09/17 04:44:02;;;;;;;;;;;4.90;99.90;;;;;;5124150;27;19911;-66
2022/09/17 04:46:28;;;;;;;;;;;4.90;99.90;;;;;;5118045;27;19968;-66
2022/09/17 04:48:53;;;;;;;;;;;4.90;99.90;;;;;;5123412;27;19919;-66
2022/09/17 04:51:19;;;;;;;;;;;4.90;99.90;;;;;;5101461;27;20130;-65
2022/09/17 04:53:44;;;;;;;;;;;4.90;99.90;;;;;;5121022;27;20275;-65
2022/09/17 04:56:10;;;;;;;;;;;4.90;99.90;;;;;;5115660;27;19998;-65
2022/09/17 04:58:35;;;;;;;;;;;4.90;99.90;;;;;;5120416;27;19912;-65
2022/09/17 05:01:01;;;;;;;;;;;4.80;99.90;;;;;;5120676;27;20445;-65
2022/09/17 05:03:26;;;;;;;;;;;4.80;99.90;;;;;;5107645;27;19926;-65
2022/09/17 05:05:52;;;;;;;;;;;4.80;99.90;;;;;;5106306;27;19916;-65
2022/09/17 05:08:17;;;;;;;;;;;4.70;99.90;;;;;;5112706;27;19919;-65
2022/09/17 05:10:43;;;;;;;;;;;4.70;99.90;;;;;;5108633;27;19929;-65
2022/09/17 05:13:08;;;;;;;;;;;4.70;99.90;;;;;;5115141;27;20379;-65
2022/09/17 05:15:34;;;;;;;;;;;4.60;99.90;;;;;;5115404;27;19915;-65
2022/09/17 05:17:59;;;;;;;;;;;4.60;99.90;;;;;;5097279;27;19919;-65
2022/09/17 05:20:25;;;;;;;;;;;4.60;99.90;;;;;;5108922;27;19968;-65
2022/09/17 05:22:51;;;;;;;;;;;4.60;99.90;;;;;;5096449;27;19947;-65
2022/09/17 05:25:18;;;;;;;;;;;4.60;99.90;;;;;;5102460;27;20031;-65
2022/09/17 05:27:44;;;;;;;;;;;4.60;99.90;;;;;;5093253;27;19930;-65
2022/09/17 05:30:10;;;;;;;;;;;4.60;99.90;;;;;;5113877;27;19923;-65
2022/09/17 05:32:36;;;;;;;;;;;4.60;99.90;;;;;;5120779;27;19923;-65
2022/09/17 05:35:02;;;;;;;;;;;4.60;99.90;;;;;;5111510;27;19911;-65
2022/09/17 05:37:28;;;;;;;;;;;4.60;99.90;;;;;;5115894;27;19916;-64
2022/09/17 05:39:53;;;;;;;;;;;4.50;99.90;;;;;;5105204;27;20006;-65
2022/09/17 05:42:19;;;;;;;;;;;4.50;99.90;;;;;;5117467;27;19911;-65
2022/09/17 05:44:44;;;;;;;;;;;4.50;99.90;;;;;;5120450;27;19976;-65
2022/09/17 05:47:10;;;;;;;;;;;4.50;99.90;;;;;;5096114;27;20328;-65
2022/09/17 05:49:35;;;;;;;;;;;4.50;99.90;;;;;;5106832;27;19927;-65
2022/09/17 05:52:02;;;;;;;;;;;4.50;99.90;;;;;;5120139;27;20363;-65
2022/09/17 05:54:28;;;;;;;;;;;4.60;99.90;;;;;;5120232;27;19915;-65
2022/09/17 05:56:53;;;;;;;;;;;4.60;99.90;;;;;;5118767;27;19931;-65
2022/09/17 05:59:19;;;;;;;;;;;4.70;99.90;;;;;;5116661;27;20204;-65
2022/09/17 06:01:44;;;;;;;;;;;4.70;99.90;;;;;;5114977;27;20006;-65
2022/09/17 06:04:10;;;;;;;;;;;4.80;99.90;;;;;;5109484;27;20482;-65
2022/09/17 06:06:37;;;;;;;;;;;4.80;99.90;;;;;;5109771;27;20402;-64
2022/09/17 06:09:04;;;;;;;;;;;4.90;99.90;;;;;;5109246;27;19927;-65
2022/09/17 06:11:29;;;;;;;;;;;5.00;99.90;;;;;;5112951;27;20430;-65
2022/09/17 06:13:55;;;;;;;;;;;5.10;99.90;;;;;;5115253;27;19919;-65
2022/09/17 06:16:21;;;;;;;;;;;5.20;99.90;;;;;;5107315;27;19916;-65
2022/09/17 06:18:48;;;;;;;;;;;5.30;99.90;;;;;;5114453;27;19919;-65
2022/09/17 06:21:14;;;;;;;;;;;5.40;99.90;;;;;;5109116;27;19950;-65
2022/09/17 06:23:42;;;;;;;;;;;5.60;99.90;;;;;;5113939;27;20413;-64
2022/09/17 06:26:08;;;;;;;;;;;5.80;99.90;;;;;;5115131;27;20003;-65
2022/09/17 06:28:33;;;;;;;;;;;6.00;99.90;;;;;;5105523;27;20788;-65
2022/09/17 06:30:59;;;;;;;;;;;6.00;99.90;;;;;;5112108;27;20470;-65
2022/09/17 06:33:25;;;;;;;;;;;6.00;99.90;;;;;;5123326;27;20006;-65
2022/09/17 06:36:01;;;;;;;;;;;6.10;99.90;;;;;;5100730;27;20034;-65
2022/09/17 06:38:28;;;;;;;;;;;6.10;99.90;;;;;;5121078;27;19953;-65
2022/09/17 06:40:53;;;;;;;;;;;6.10;99.90;;;;;;5111937;27;19915;-65
2022/09/17 06:43:19;;;;;;;;;;;6.30;99.90;;;;;;5113229;27;19980;-65
2022/09/17 06:45:55;;;;;;;;;;;6.40;99.90;;;;;;5106599;27;20006;-65
2022/09/17 06:48:21;;;;;;;;;;;6.40;99.90;;;;;;5105108;27;19955;-65
2022/09/17 06:50:47;;;;;;;;;;;6.40;99.90;;;;;;5103981;27;19968;-65
2022/09/17 06:53:12;;;;;;;;;;;6.40;99.90;;;;;;5102954;27;19919;-65
2022/09/17 06:55:38;;;;;;;;;;;6.40;99.90;;;;;;5110336;27;19916;-66
2022/09/17 06:58:03;;;;;;;;;;;6.50;99.90;;;;;;5110773;27;19911;-66
2022/09/17 07:00:29;;;;;;;;;;;6.70;99.90;;;;;;5115979;27;20406;-66
2022/09/17 07:02:56;;;;;;;;;;;6.70;99.90;;;;;;5115059;27;19922;-66
2022/09/17 07:05:22;;;;;;;;;;;6.70;99.90;;;;;;5114949;27;19920;-65
2022/09/17 07:07:47;;;;;;;;;;;6.80;99.90;;;;;;5107647;27;19931;-65
2022/09/17 07:10:13;;;;;;;;;;;6.90;99.90;;;;;;5087874;27;20100;-66
2022/09/17 07:12:39;;;;;;;;;;;6.90;99.90;;;;;;5083890;27;19961;-66
2022/09/17 07:15:05;;;;;;;;;;;7.00;99.90;;;;;;5083607;27;19916;-65
2022/09/17 07:17:30;;;;;;;;;;;7.00;99.90;;;;;;5108743;27;20387;-65
2022/09/17 07:19:56;;;;;;;;;;;7.10;99.90;;;;;;5109419;27;19951;-66
2022/09/17 07:22:23;;;;;;;;;;;7.20;99.90;;;;;;5120187;27;19951;-66
2022/09/17 07:24:48;;;;;;;;;;;7.20;99.90;;;;;;5100439;27;20298;-66
2022/09/17 07:27:14;;;;;;;;;;;7.30;99.90;;;;;;5108272;27;19923;-64
2022/09/17 07:29:40;;;;;;;;;;;7.40;99.90;;;;;;5120984;27;19929;-65
2022/09/17 07:32:06;;;;;;;;;;;7.50;99.90;;;;;;5114740;27;20378;-65
2022/09/17 07:34:31;;;;;;;;;;;7.60;99.90;;;;;;5111923;27;19915;-64
2022/09/17 07:36:57;;;;;;;;;;;8.00;99.90;;;;;;5110927;27;20001;-65
2022/09/17 07:39:22;;;;;;;;;;;8.30;99.90;;;;;;5090249;27;20345;-65
2022/09/17 07:41:48;;;;;;;;;;;8.50;99.90;;;;;;5102441;27;19919;-65
2022/09/17 07:44:13;;;;;;;;;;;8.90;99.90;;;;;;5090027;27;19915;-64
2022/09/17 07:46:39;;;;;;;;;;;9.10;99.90;;;;;;5090599;27;20362;-64
2022/09/17 07:49:04;;;;;;;;;;;9.30;99.90;;;;;;5107293;27;19926;-65
2022/09/17 07:51:30;;;;;;;;;;;9.40;99.90;;;;;;5106233;27;19962;-64
2022/09/17 07:53:57;;;;;;;;;;;10.10;99.90;;;;;;5107818;27;20443;-64
2022/09/17 07:56:23;;;;;;;;;;;12.30;99.90;;;;;;5100854;27;20452;-65
2022/09/17 07:58:48;;;;;;;;;;;16.40;99.90;;;;;;5092246;27;19922;-65
2022/09/17 08:01:17;;;;;;;;;;;19.60;90.60;;;;;;5084227;27;19916;-65
2022/09/17 08:03:47;;;;;;;;;;;21.50;74.50;;;;;;5087703;27;19968;-65
2022/09/17 08:06:14;;;;;;;;;;;23.90;64.60;;;;;;5111946;27;19968;-65
2022/09/17 08:08:39;;;;;;;;;;;25.20;54.60;;;;;;5106587;27;20520;-65
2022/09/17 08:11:06;;;;;;;;;;;26.10;49.90;;;;;;5112481;27;19929;-65
2022/09/17 08:13:32;;;;;;;;;;;26.90;49.10;;;;;;5118550;27;19920;-65
2022/09/17 08:16:02;;;;;;;;;;;27.70;46.70;;;;;;5111933;27;20264;-65
2022/09/17 08:18:28;;;;;;;;;;;27.90;45.70;;;;;;5106143;27;19926;-66
2022/09/17 08:20:58;;;;;;;;;;;27.80;44.20;;;;;;5110500;27;20369;-65
2022/09/17 08:23:24;;;;;;;;;;;28.00;43.30;;;;;;5111653;27;19993;-65
2022/09/17 08:25:53;;;;;;;;;;;29.10;43.00;;;;;;5106682;27;19924;-65
2022/09/17 08:28:19;;;;;;;;;;;29.60;41.70;;;;;;5109759;27;19963;-65
2022/09/17 08:30:45;;;;;;;;;;;29.80;41.40;;;;;;5105866;27;20054;-65
2022/09/17 08:33:10;;;;;;;;;;;30.30;42.50;;;;;;5097576;27;20195;-65
2022/09/17 08:35:36;;;;;;;;;;;29.70;40.60;;;;;;5105284;27;20529;-65
2022/09/17 08:38:01;;;;;;;;;;;29.80;41.30;;;;;;5114040;27;19992;-65
2022/09/17 08:40:27;;;;;;;;;;;30.60;40.30;;;;;;5105440;27;20410;-65
2022/09/17 08:42:56;;;;;;;;;;;30.00;39.00;;;;;;5104864;27;19936;-65
2022/09/17 08:45:22;;;;;;;;;;;30.10;40.20;;;;;;5112368;27;20014;-65
2022/09/17 08:47:48;;;;;;;;;;;30.30;37.40;;;;;;5111334;27;20012;-65
2022/09/17 08:50:18;;;;;;;;;;;30.00;38.50;;;;;;5120941;27;19928;-65
2022/09/17 08:53:03;;;;;;;;;;;30.00;38.60;;;;;;5118874;27;20421;-65
2022/09/17 08:55:47;;;;;;;;;;;29.60;38.10;;;;;;5117185;27;19915;-65
2022/09/17 08:58:26;;;;;;;;;;;30.00;37.90;;;;;;5122306;27;19915;-65
2022/09/17 09:01:15;;;;;;;;;;;29.00;39.10;;;;;;5116366;27;19968;-65
2022/09/17 09:04:01;;;;;;;;;;;29.20;41.10;;;;;;5117716;27;20158;-65
2022/09/17 09:06:30;;;;;;;;;;;29.90;38.40;;;;;;5118695;27;19919;-65
2022/09/17 09:08:58;;;;;;;;;;;29.50;39.50;;;;;;5115924;27;19916;-66
2022/09/17 09:11:27;;;;;;;;;;;29.40;37.60;;;;;;5109588;27;20023;-66
2022/09/17 09:13:55;;;;;;;;;;;29.50;39.60;;;;;;5102338;27;20378;-65
2022/09/17 09:16:22;;;;;;;;;;;29.30;38.60;;;;;;5104029;27;19926;-65
2022/09/17 09:18:50;;;;;;;;;;;28.90;39.10;;;;;;5099724;27;21007;-65
2022/09/17 09:21:27;;;;;;;;;;;29.20;40.40;;;;;;5103257;27;20431;-66
2022/09/17 09:23:53;;;;;;;;;;;29.30;38.70;;;;;;5114255;27;19919;-66
2022/09/17 09:26:20;;;;;;;;;;;29.00;40.70;;;;;;5119008;27;20018;-66
2022/09/17 09:28:52;;;;;;;;;;;28.90;37.60;;;;;;4749256;27;10000499;-66
2022/09/17 09:31:37;;;;;;;;;;;28.40;38.70;;;;;;5112090;27;19923;-65
2022/09/17 09:34:02;;;;;;;;;;;28.70;34.80;;;;;;5117556;27;20409;-66
2022/09/17 09:36:31;;;;;;;;;;;28.40;40.60;;;;;;5121131;27;19915;-66
2022/09/17 09:38:56;;;;;;;;;;;28.10;37.90;;;;;;5113839;27;19919;-65
2022/09/17 09:41:30;;;;;;;;;;;27.80;39.60;;;;;;5105268;27;19919;-65
2022/09/17 09:44:03;;;;;;;;;;;27.70;42.30;;;;;;5115067;27;20425;-66
2022/09/17 09:46:49;;;;;;;;;;;27.90;38.90;;;;;;5118500;27;20392;-65
2022/09/17 09:49:14;;;;;;;;;;;27.40;38.10;;;;;;5112279;27;19966;-66
2022/09/17 09:51:58;;;;;;;;;;;28.00;38.40;;;;;;5112659;27;19966;-66
2022/09/17 09:54:43;;;;;;;;;;;27.80;40.30;;;;;;5101708;27;20332;-65
2022/09/17 09:57:16;;;;;;;;;;;28.00;39.20;;;;;;5101555;27;20377;-66
2022/09/17 09:59:42;;;;;;;;;;;27.90;40.10;;;;;;5120062;27;20323;-66
2022/09/17 10:02:07;;;;;;;;;;;27.50;39.00;;;;;;5107507;27;19979;-66
2022/09/17 10:04:33;;;;;;;;;;;27.70;38.40;;;;;;5116070;27;19918;-68
2022/09/17 10:07:09;;;;;;;;;;;28.00;39.10;;;;;;5115896;27;19922;-68
2022/09/17 10:09:36;;;;;;;;;;;27.40;41.30;;;;;;5119979;27;19970;-68
2022/09/17 10:12:02;;;;;;;;;;;28.00;37.80;;;;;;5119233;27;19959;-68
2022/09/17 10:14:28;;;;;;;;;;;28.00;39.70;;;;;;5130699;27;20845;-68
2022/09/17 10:17:12;;;;;;;;;;;27.70;37.00;;;;;;5118199;27;20022;-68
2022/09/17 10:19:38;;;;;;;;;;;27.80;38.30;;;;;;5110409;27;19915;-68
2022/09/17 10:22:24;;;;;;;;;;;27.90;37.20;;;;;;5116864;27;21034;-68
2022/09/17 10:24:51;;;;;;;;;;;27.60;37.40;;;;;;5103921;27;19915;-68
2022/09/17 10:27:17;;;;;;;;;;;26.90;40.40;;;;;;5112375;27;19957;-68
2022/09/17 10:29:44;;;;;;;;;;;27.20;35.50;;;;;;5115336;27;19920;-68
2022/09/17 10:32:16;;;;;;;;;;;27.40;41.10;;;;;;5104821;27;20267;-68
2022/09/17 10:34:55;;;;;;;;;;;27.50;37.00;;;;;;5117442;27;20347;-68
2022/09/17 10:37:40;;;;;;;;;;;27.60;36.20;;;;;;5119210;27;20002;-68
2022/09/17 10:40:18;;;;;;;;;;;27.30;39.90;;;;;;5112706;27;19924;-68
2022/09/17 10:42:44;;;;;;;;;;;27.50;39.40;;;;;;5116001;27;20370;-68
2022/09/17 10:45:22;;;;;;;;;;;27.80;39.40;;;;;;5108454;27;19923;-68
2022/09/17 10:47:49;;;;;;;;;;;27.60;40.60;;;;;;5114953;27;19980;-68
2022/09/17 10:50:17;;;;;;;;;;;27.80;37.40;;;;;;5122397;27;19923;-68
2022/09/17 10:52:54;;;;;;;;;;;27.70;40.30;;;;;;5120021;27;20227;-68
2022/09/17 10:55:29;;;;;;;;;;;27.80;37.30;;;;;;5090210;27;19996;-68
2022/09/17 10:58:06;;;;;;;;;;;27.80;38.50;;;;;;5091646;27;20527;-69
2022/09/17 11:00:47;;;;;;;;;;;26.90;40.00;;;;;;5099109;27;20335;-68
2022/09/17 11:03:19;;;;;;;;;;;26.90;39.20;;;;;;5099913;27;19980;-68
2022/09/17 11:05:45;;;;;;;;;;;27.10;39.00;;;;;;5091782;27;19923;-68
2022/09/17 11:08:22;;;;;;;;;;;26.70;41.00;;;;;;5087717;27;19916;-68
2022/09/17 11:10:52;;;;;;;;;;;27.40;42.40;;;;;;5097570;27;20481;-68
2022/09/17 11:13:18;;;;;;;;;;;27.10;42.00;;;;;;5093822;27;19923;-68
2022/09/17 11:15:58;;;;;;;;;;;26.90;37.80;;;;;;5097808;27;19938;-68
2022/09/17 11:18:26;;;;;;;;;;;26.70;39.80;;;;;;5091207;27;19989;-66
2022/09/17 11:21:10;;;;;;;;;;;26.70;41.90;;;;;;5091635;27;20363;-66
2022/09/17 11:23:55;;;;;;;;;;;26.50;38.90;;;;;;5088335;27;19915;-65
2022/09/17 11:26:49;;;;;;;;;;;25.60;41.40;;;;;;5091106;27;20520;-66
2022/09/17 11:29:35;;;;;;;;;;;24.70;44.50;;;;;;5075813;27;20018;-66
2022/09/17 11:32:19;;;;;;;;;;;23.60;46.40;;;;;;4739161;27;10001406;-66
2022/09/17 11:35:04;;;;;;;;;;;23.10;50.70;;;;;;5090841;28;19919;-66
2022/09/17 11:37:32;;;;;;;;;;;22.70;49.20;;;;;;5087045;27;20050;-66
2022/09/17 11:40:11;;;;;;;;;;;22.40;49.30;;;;;;5105715;27;19926;-66
2022/09/17 11:42:39;;;;;;;;;;;22.30;47.00;;;;;;5110213;27;19922;-66
2022/09/17 11:45:10;;;;;;;;;;;22.10;51.50;;;;;;5116257;28;20006;-66
2022/09/17 11:47:39;;;;;;;;;;;22.10;52.30;;;;;;5115177;28;19921;-65
2022/09/17 11:50:18;;;;;;;;;;;22.00;50.60;;;;;;5104751;28;20459;-66
2022/09/17 11:52:45;;;;;;;;;;;22.00;50.90;;;;;;5113406;28;19927;-65
2022/09/17 11:55:20;;;;;;;;;;;22.10;47.10;;;;;;5106722;27;19967;-66
2022/09/17 11:57:47;;;;;;;;;;;22.00;50.20;;;;;;5104044;28;19927;-66
2022/09/17 12:00:17;;;;;;;;;;;21.70;51.00;;;;;;5102557;28;19927;-66
2022/09/17 12:02:56;;;;;;;;;;;21.60;52.70;;;;;;5111801;27;19915;-66
2022/09/17 12:05:25;;;;;;;;;;;21.60;55.20;;;;;;5117296;27;20319;-66
2022/09/17 12:07:58;;;;;;;;;;;21.50;52.60;;;;;;5103860;27;19922;-66
2022/09/17 12:10:42;;;;;;;;;;;21.50;51.20;;;;;;5109529;27;19923;-66
2022/09/17 12:13:29;;;;;;;;;;;21.40;51.90;;;;;;5109410;27;20369;-65
2022/09/17 12:16:21;;;;;;;;;;;21.60;56.60;;;;;;5101494;27;19916;-65
2022/09/17 12:18:54;;;;;;;;;;;21.60;54.20;;;;;;5099394;27;19919;-65
2022/09/17 12:21:52;;;;;;;;;;;21.40;52.70;;;;;;5112911;27;20005;-65
2022/09/17 12:24:21;;;;;;;;;;;21.40;55.70;;;;;;5051780;27;19919;-65
2022/09/17 12:26:53;;;;;;;;;;;21.40;54.20;;;;;;5108034;27;19960;-65
2022/09/17 12:29:32;;;;;;;;;;;21.20;52.40;;;;;;5107942;27;20020;-67
2022/09/17 12:32:04;;;;;;;;;;;20.70;51.10;;;;;;5119270;27;19916;-71
2022/09/17 12:34:41;;;;;;;;;;;20.80;57.30;;;;;;5137505;22;19929;-74
2022/09/17 12:37:14;;;;;;;;;;;21.00;53.90;;;;;;5003162;28;19988;-78
2022/09/17 12:39:40;;;;;;;;;;;21.00;53.80;;;;;;5002133;28;19944;-78
2022/09/17 12:42:15;;;;;;;;;;;20.90;55.60;;;;;;5003706;28;20420;-76
2022/09/17 12:44:50;;;;;;;;;;;21.00;52.40;;;;;;5003022;28;19971;-77
2022/09/17 12:47:24;;;;;;;;;;;21.00;50.90;;;;;;4998912;28;20035;-77
2022/09/17 12:49:55;;;;;;;;;;;20.90;51.70;;;;;;5001761;28;19932;-77
2022/09/17 12:52:39;;;;;;;;;;;20.60;54.10;;;;;;4996869;28;20174;-76
2022/09/17 12:55:17;;;;;;;;;;;20.30;51.70;;;;;;5000172;28;20490;-77
2022/09/17 12:57:43;;;;;;;;;;;20.10;53.60;;;;;;5001817;28;19917;-78
2022/09/17 13:00:13;;;;;;;;;;;19.90;56.10;;;;;;4995765;28;19925;-78
2022/09/17 13:02:45;;;;;;;;;;;19.70;56.90;;;;;;5002776;28;19937;-78
2022/09/17 13:05:19;;;;;;;;;;;19.70;56.90;;;;;;4998412;28;19928;-78
2022/09/17 13:07:50;;;;;;;;;;;20.10;56.30;;;;;;4999611;28;20165;-78
2022/09/17 13:10:18;;;;;;;;;;;20.10;56.40;;;;;;5000835;28;20443;-78
2022/09/17 13:12:44;;;;;;;;;;;20.20;57.10;;;;;;5001770;28;19917;-78
2022/09/17 13:15:12;;;;;;;;;;;20.40;53.40;;;;;;4994006;28;19929;-78
2022/09/17 13:17:54;;;;;;;;;;;20.10;56.20;;;;;;4997726;28;20113;-77
2022/09/17 13:20:25;;;;;;;;;;;19.90;59.20;;;;;;4997053;28;19924;-78
2022/09/17 13:22:53;;;;;;;;;;;20.10;54.60;;;;;;4983005;28;20377;-78
2022/09/17 13:25:20;;;;;;;;;;;19.80;55.50;;;;;;4982473;28;19922;-79
2022/09/17 13:27:47;;;;;;;;;;;19.80;52.20;;;;;;5001087;28;19933;-77
2022/09/17 13:30:14;;;;;;;;;;;19.80;58.10;;;;;;5001056;28;20320;-78
2022/09/17 13:32:40;;;;;;;;;;;19.80;54.20;;;;;;4984970;28;20273;-78
2022/09/17 13:35:05;;;;;;;;;;;20.00;57.70;;;;;;5000072;28;19956;-78
2022/09/17 13:37:32;;;;;;;;;;;20.10;55.60;;;;;;4996048;28;19936;-78
2022/09/17 13:39:58;;;;;;;;;;;20.20;54.80;;;;;;4998001;28;19921;-78
2022/09/17 13:42:27;;;;;;;;;;;20.10;54.60;;;;;;4996625;28;19921;-77
2022/09/17 13:45:15;;;;;;;;;;;20.10;55.30;;;;;;5004618;28;20379;-75
2022/09/17 13:47:49;;;;;;;;;;;20.00;54.00;;;;;;5000401;28;20015;-77
2022/09/17 13:50:25;;;;;;;;;;;19.70;56.80;;;;;;4999234;28;20663;-78
2022/09/17 13:52:51;;;;;;;;;;;19.70;55.10;;;;;;5003983;28;19918;-77
2022/09/17 13:55:31;;;;;;;;;;;19.40;54.70;;;;;;4989513;28;20268;-77
2022/09/17 13:57:57;;;;;;;;;;;19.00;58.30;;;;;;4979817;28;20047;-77
2022/09/17 14:00:42;;;;;;;;;;;18.80;58.60;;;;;;5000827;28;19917;-77
2022/09/17 14:03:27;;;;;;;;;;;18.60;60.10;;;;;;5005176;28;20261;-77
2022/09/17 14:05:53;;;;;;;;;;;18.80;64.00;;;;;;4993128;28;19971;-78
2022/09/17 14:08:42;;;;;;;;;;;19.10;62.70;;;;;;4987713;28;19921;-77
2022/09/17 14:11:20;;;;;;;;;;;19.40;61.30;;;;;;4997033;28;19933;-78
2022/09/17 14:13:46;;;;;;;;;;;19.20;56.20;;;;;;5002627;28;20020;-77
2022/09/17 14:16:35;;;;;;;;;;;19.20;56.10;;;;;;4983341;28;19921;-77
2022/09/17 14:19:01;;;;;;;;;;;19.00;59.80;;;;;;5001235;28;19924;-78
2022/09/17 14:21:31;;;;;;;;;;;19.00;59.50;;;;;;5000973;28;19921;-77
2022/09/17 14:23:59;;;;;;;;;;;19.20;57.30;;;;;;4990702;28;19917;-77
2022/09/17 14:26:39;;;;;;;;;;;19.20;59.30;;;;;;5007736;28;19924;-77
2022/09/17 14:29:11;;;;;;;;;;;19.40;59.80;;;;;;5002362;28;20055;-78
2022/09/17 14:31:37;;;;;;;;;;;19.40;56.30;;;;;;5002435;28;19929;-78
2022/09/17 14:34:04;;;;;;;;;;;19.40;55.80;;;;;;5000253;28;20181;-78
2022/09/17 14:36:32;;;;;;;;;;;19.40;56.70;;;;;;5003816;28;19964;-78
2022/09/17 14:38:57;;;;;;;;;;;19.40;55.80;;;;;;5002261;28;20266;-77